Bei Facebook empfehlenBei Twitter postenGoogle plusPinterest

Das Wetter im Erzgebirge am 25.05.2016

Wetter und Klima am 25.05.2016 Holzhau im Erzgebirge (630m ü.NN)
Letzte gemessene Temperatur und Uhrzeit der Messung23:45:00 Uhr10.70 °C
Temperatur (Maximum / Höchstwert) und Uhrzeit der Messung14:15:00 Uhr13.10 °C
Temperatur (Minimum / Tiefstwert) und Uhrzeit der Messung06:00:008.60 °C
Errechneter Absolutwert der Temperaturschwankungen zwischen Tmin und Tmax des Tages4.50 K
Errechnete Tagesmitteltemperatur10.53438 °C
Gesamt - Niederschlag des Tages (in flüssiger Form)3.11 Liter / m²
Luftdruck (Maximum / Höchstwert) und Zeitpunkt der Messung23:45:00 Uhr1012.30 hPa
Luftdruck (Minimum / Tiefstwert) und Zeitpunkt der Messung04:45:00 Uhr1009.70 hPa
Errechneter Absolutwert der Luftdruckschwankungen des Tages2.60 hPa
Höchste gemessene Windgeschwindigkeit und Uhrzeit der Messung23:45:00 Uhr0.00 km/h
Errechnete Windhäufigkeit in Relation zu den Messwerten des Tages0.00000 %
Niedrigste Windkühle (Windchill) und Zeitpunkt der Messung06:00:00 Uhr8.60 °C
Taupunkt (Maximum / Höchstwert) und Uhrzeit der Messung14:15:00 Uhr12.30 °C
Taupunkt (Minimum / Tiefstwert) und Uhrzeit der Messung06:00:007.80 °C
Anzahl der automatisch eingelesenen Messwerte 96

Detaillierte Wetter- und Klima- Messwerte für den 25.05.2016 in Holzhau im Erzgebirge (630m ü.NN)
ZeitTemperaturLuftdruckRel. LuftfeuchteWindWindrichtungWindchillTaupunktNiederschlag l/m²
23:45:0010.70 °C1012.30 hPa93.00 %9.60 °C3.11
23:30:0010.70 °C1012.30 hPa93.00 %9.60 °C3.11
23:15:0010.70 °C1012.10 hPa93.00 %9.60 °C3.11
23:00:0010.80 °C1012.20 hPa93.00 %9.70 °C3.11
22:45:0010.80 °C1012.20 hPa93.00 %9.70 °C3.11
22:30:0010.80 °C1012.10 hPa93.00 %9.70 °C3.11
22:15:0010.80 °C1012.00 hPa93.00 %9.70 °C3.11
22:00:0010.90 °C1011.90 hPa93.00 %9.80 °C3.11
21:45:0010.90 °C1012.00 hPa93.00 %9.80 °C3.11
21:30:0010.90 °C1011.80 hPa92.00 %9.70 °C3.11
21:15:0010.90 °C1011.80 hPa92.00 %9.70 °C3.11
21:00:0011.00 °C1011.50 hPa92.00 %9.80 °C3.11
20:45:0011.10 °C1011.60 hPa92.00 %9.90 °C3.11
20:30:0011.20 °C1011.40 hPa92.00 %9.90 °C3.11
20:15:0011.30 °C1011.40 hPa92.00 %10.00 °C3.11
20:00:0011.30 °C1011.40 hPa92.00 %10.00 °C3.11
19:45:0011.30 °C1011.60 hPa91.00 %9.90 °C3.11
19:30:0011.40 °C1011.40 hPa91.00 %10.00 °C3.11
19:15:0011.60 °C1011.40 hPa92.00 %10.30 °C3.11
19:00:0011.80 °C1011.40 hPa92.00 %10.50 °C3.11
18:45:0011.80 °C1011.40 hPa91.00 %10.40 °C3.11
18:30:0011.80 °C1011.30 hPa91.00 %10.40 °C3.11
18:15:0012.10 °C1011.40 hPa91.00 %10.70 °C3.11
18:00:0012.30 °C1011.20 hPa91.00 %10.90 °C3.11
17:45:0012.50 °C1011.20 hPa91.00 %11.10 °C3.11
17:30:0012.60 °C1011.40 hPa91.00 %11.20 °C3.11
17:15:0012.60 °C1011.40 hPa92.00 %11.30 °C3.11
17:00:0012.90 °C1011.30 hPa92.00 %11.60 °C3.11
16:45:0012.90 °C1011.30 hPa92.00 %11.60 °C3.11
16:30:0012.80 °C1011.60 hPa93.00 %11.70 °C3.11
16:15:0012.70 °C1011.60 hPa92.00 %11.40 °C3.11
16:00:0012.60 °C1011.60 hPa93.00 %11.50 °C3.11
15:45:0012.50 °C1011.40 hPa93.00 %11.40 °C3.11
15:30:0012.90 °C1011.30 hPa93.00 %11.80 °C3.11
15:15:0012.60 °C1011.30 hPa94.00 %11.70 °C3.11
15:00:0012.30 °C1011.40 hPa94.00 %11.40 °C3.11
14:45:0012.40 °C1011.30 hPa94.00 %11.50 °C3.11
14:30:0012.70 °C1011.30 hPa94.00 %11.80 °C3.11
14:15:0013.10 °C1011.30 hPa95.00 %12.30 °C3.11
14:00:0012.90 °C1011.20 hPa95.00 %12.10 °C3.11
13:45:0012.70 °C1011.20 hPa95.00 %11.90 °C3.11
13:30:0012.70 °C1011.10 hPa96.00 %12.10 °C3.11
13:15:0012.30 °C1011.10 hPa96.00 %11.70 °C3.11
13:00:0011.60 °C1011.30 hPa96.00 %11.00 °C3.11
12:45:0011.40 °C1011.20 hPa96.00 %10.80 °C3.11
12:30:0011.80 °C1011.10 hPa96.00 %11.20 °C3.11
12:15:0011.90 °C1011.00 hPa96.00 %11.30 °C3.11
12:00:0011.60 °C1011.00 hPa96.00 %11.00 °C3.11
11:45:0011.70 °C1011.10 hPa96.00 %11.10 °C3.11
11:30:0011.20 °C1010.90 hPa96.00 %10.60 °C3.11
11:15:0011.10 °C1011.00 hPa96.00 %10.50 °C3.11
11:00:0011.20 °C1011.20 hPa96.00 %10.60 °C3.11
10:45:0010.90 °C1011.10 hPa96.00 %10.30 °C3.11
10:30:0010.50 °C1011.00 hPa96.00 %9.90 °C3.11
10:15:0010.20 °C1011.10 hPa96.00 %9.60 °C3.11
10:00:009.90 °C1010.80 hPa96.00 %9.30 °C3.11
09:45:009.80 °C1010.80 hPa96.00 %9.20 °C3.11
09:30:009.70 °C1010.80 hPa96.00 %9.10 °C3.11
09:15:009.60 °C1010.70 hPa96.00 %9.00 °C3.11
09:00:009.50 °C1010.80 hPa96.00 %8.90 °C3.11
08:45:009.30 °C1010.70 hPa96.00 %8.70 °C3.11
08:30:009.20 °C1010.60 hPa96.00 %8.60 °C3.11
08:15:009.10 °C1010.60 hPa96.00 %8.50 °C3.11
08:00:009.00 °C1010.60 hPa96.00 %8.40 °C3.11
07:45:008.90 °C1010.50 hPa96.00 %8.30 °C3.11
07:30:008.90 °C1010.50 hPa96.00 %8.30 °C3.11
07:15:008.80 °C1010.50 hPa96.00 %8.20 °C3.11
07:00:008.80 °C1010.30 hPa96.00 %8.20 °C3.11
06:45:008.80 °C1010.10 hPa96.00 %8.20 °C3.11
06:30:008.70 °C1010.20 hPa96.00 %8.10 °C3.11
06:15:008.70 °C1010.30 hPa95.00 %7.90 °C3.11
06:00:008.60 °C1010.10 hPa95.00 %7.80 °C3.11
05:45:008.60 °C1010.10 hPa95.00 %7.80 °C3.11
05:30:008.60 °C1009.90 hPa95.00 %7.80 °C3.11
05:15:008.60 °C1010.00 hPa95.00 %7.80 °C3.11
05:00:008.60 °C1009.90 hPa95.00 %7.80 °C3.11
04:45:008.60 °C1009.70 hPa95.00 %7.80 °C3.11
04:30:008.60 °C1009.90 hPa95.00 %7.80 °C3.11
04:15:008.60 °C1009.80 hPa95.00 %7.80 °C3.11
04:00:008.60 °C1009.70 hPa95.00 %7.80 °C3.11
03:45:008.60 °C1009.90 hPa95.00 %7.80 °C3.11
03:30:008.70 °C1009.70 hPa95.00 %7.90 °C3.11
03:15:008.70 °C1009.70 hPa95.00 %7.90 °C3.11
03:00:008.70 °C1009.70 hPa95.00 %7.90 °C3.11
02:45:008.70 °C1009.80 hPa95.00 %7.90 °C3.11
02:30:008.80 °C1009.70 hPa95.00 %8.00 °C3.11
02:15:008.80 °C1009.90 hPa95.00 %8.00 °C3.11
02:00:008.80 °C1009.90 hPa95.00 %8.00 °C3.11
01:45:008.90 °C1009.90 hPa96.00 %8.30 °C3.11
01:30:008.90 °C1009.90 hPa96.00 %8.30 °C3.11
01:15:008.90 °C1009.90 hPa96.00 %8.30 °C3.11
01:00:009.10 °C1010.10 hPa96.00 %8.50 °C0.52
00:45:009.10 °C1010.00 hPa96.00 %8.50 °C 
00:30:009.20 °C1010.10 hPa95.00 %8.40 °C 
00:15:009.30 °C1009.80 hPa95.00 %8.50 °C 
00:00:009.30 °C1009.80 hPa95.00 %8.50 °C 

Permanenter Link zu dieser Seite: Wetter im Erzgebirge am 25.05.2016
Performance-Info: Die Erstellung der Seite / Statistik(en) / Tabelle(n) erforderte 5 Datenbankserver-Abfrage(n) und dauerte 122 Millisekunden. (Dieser Messwert ist von der Gesamt-Auslastung des Servers abhängig.)
Erzgebirge - Wetter | Erzgebirge - Wetter (Mobilgeräte) | Komplette Klimadatenbank